< Cyclone 199607 1996 Season Cyclone 199610 >
Cyclone 199609 (ISOBEL)
General InformationTrack Information on Google MapsDetailed Wind InformationList of All Images || ResourceGoogle EarthGE AnimationAtom FeedGeoJSON
Detalied Best Track (Time Zone = UTC)
Year Month Day Hour Lat. Long. Pressure (hPa) Wind (kt) Class Image Chart
1996 1 27 01 -12.3 122.8 1000 27 2 Image --
1996 1 27 07 -12.2 122.1 1000 27 2 Image --
1996 1 27 13 -12.1 121.5 1000 27 2 Image --
1996 1 27 19 -12.0 120.9 1000 27 2 Image --
1996 1 28 01 -11.9 120.2 1000 27 2 Image --
1996 1 28 04 -12.0 119.8 1000 27 2 Image --
1996 1 28 07 -12.2 119.5 1000 27 2 Image --
1996 1 28 10 -12.4 119.0 1000 27 2 Image --
1996 1 28 13 -12.6 118.6 1000 27 2 Image --
1996 1 28 16 -12.9 118.2 1000 27 2 Image --
1996 1 28 19 -13.2 117.8 1000 27 2 Image --
1996 1 28 22 -13.4 117.4 998 29 2 Image --
1996 1 29 01 -13.6 117.0 998 29 2 Image --
1996 1 29 04 -13.8 116.7 998 29 2 Image --
1996 1 29 07 -13.9 116.4 995 35 3 Image --
1996 1 29 10 -14.1 116.2 995 35 3 Image --
1996 1 29 13 -14.0 116.2 995 35 3 Image --
1996 1 29 16 -14.0 116.2 995 35 3 Image --
1996 1 29 19 -14.0 116.2 995 35 3 Image --
1996 1 29 22 -14.0 116.2 995 35 3 Image --
1996 1 30 01 -14.1 116.1 995 35 3 Image --
1996 1 30 04 -14.3 115.8 995 35 3 Image --
1996 1 30 07 -14.7 115.6 995 35 3 Image --
1996 1 30 10 -14.8 115.6 995 35 3 Image --
1996 1 30 13 -15.1 115.6 995 35 3 Image --
1996 1 30 16 -15.3 115.5 995 35 3 Image --
1996 1 30 19 -15.5 115.4 995 35 3 Image --
1996 1 30 22 -15.8 115.3 995 35 3 Image --
1996 1 31 01 -16.1 115.0 998 29 2 Image --
1996 1 31 04 -16.1 115.0 998 29 2 Image --
1996 1 31 07 -16.2 114.9 1000 27 2 Image --
1996 1 31 10 -16.3 114.8 1000 27 2 Image --
1996 1 31 13 -16.4 114.8 1000 27 2 Image --
1996 1 31 16 -16.6 114.7 1002 23 2 Image --
1996 1 31 19 -16.8 114.7 1002 23 2 Image --
1996 1 31 22 -17.0 114.7 1002 23 2 Image --
1996 2 1 01 -17.2 114.6 1002 23 2 Image --
< Cyclone 199607 1996 Season Cyclone 199610 >

Help